Time;durP1;ratioP1;P1;durP2;ratioP2;P2;SDS_P1;SDS_P2;PMS_P1;PMS_P2;Temp;Humidity;BMP_temperature;BMP_pressure;BME280_temperature;BME280_humidity;BME280_pressure;Samples;Min_cycle;Max_cycle;Signal;HPM_P1;HPM_P2
2023/08/15 00:00:29;;;;;;;4.82;4.43;;;24.00;81.60;;;;;;5012768;28;20052;-65
2023/08/15 00:02:55;;;;;;;5.53;4.13;;;24.00;81.70;;;;;;4996579;28;20029;-64
2023/08/15 00:05:20;;;;;;;4.53;4.13;;;24.00;81.60;;;;;;5013281;28;20042;-64
2023/08/15 00:07:46;;;;;;;5.25;4.75;;;23.90;81.30;;;;;;5011554;28;20516;-64
2023/08/15 00:10:11;;;;;;;5.10;4.60;;;24.00;81.30;;;;;;5011339;28;20095;-65
2023/08/15 00:12:37;;;;;;;5.28;4.68;;;23.90;81.60;;;;;;5011134;28;20034;-64
2023/08/15 00:15:03;;;;;;;4.78;4.28;;;24.00;81.80;;;;;;5014456;28;20034;-64
2023/08/15 00:17:29;;;;;;;6.13;4.70;;;23.90;81.60;;;;;;5013259;28;20038;-65
2023/08/15 00:19:54;;;;;;;4.63;3.92;;;23.90;81.60;;;;;;5015489;28;20041;-64
2023/08/15 00:22:20;;;;;;;4.93;4.43;;;23.90;81.80;;;;;;5014016;28;20050;-64
2023/08/15 00:24:45;;;;;;;4.93;4.43;;;23.80;82.00;;;;;;5014835;28;20049;-64
2023/08/15 00:27:11;;;;;;;4.80;4.22;;;23.90;82.00;;;;;;5015064;28;20040;-65
2023/08/15 00:29:36;;;;;;;6.55;4.22;;;23.90;82.10;;;;;;5015402;28;20042;-64
2023/08/15 00:32:02;;;;;;;5.90;4.60;;;23.90;82.10;;;;;;5015575;28;20489;-65
2023/08/15 00:34:28;;;;;;;6.20;4.63;;;23.90;82.10;;;;;;5011425;28;20088;-65
2023/08/15 00:36:53;;;;;;;4.75;4.35;;;23.90;82.20;;;;;;5010745;28;20053;-64
2023/08/15 00:39:19;;;;;;;6.00;4.60;;;23.90;82.00;;;;;;5009088;28;20121;-64
2023/08/15 00:41:44;;;;;;;5.68;4.90;;;23.90;82.00;;;;;;5007962;28;20521;-65
2023/08/15 00:44:10;;;;;;;5.53;4.65;;;23.90;82.20;;;;;;5007963;28;20046;-63
2023/08/15 00:46:38;;;;;;;5.65;5.18;;;23.90;82.00;;;;;;5006198;28;20040;-64
2023/08/15 00:49:05;;;;;;;5.65;4.95;;;23.90;82.20;;;;;;5006992;28;20099;-64
2023/08/15 00:51:31;;;;;;;7.05;5.10;;;23.90;82.40;;;;;;5008185;28;20133;-64
2023/08/15 00:53:57;;;;;;;6.88;5.60;;;23.80;82.20;;;;;;5007851;28;20041;-64
2023/08/15 00:56:23;;;;;;;6.22;5.38;;;23.80;82.40;;;;;;5008685;28;20413;-64
2023/08/15 00:58:49;;;;;;;8.98;5.60;;;23.80;82.30;;;;;;5010285;28;20033;-64
2023/08/15 01:01:21;;;;;;;7.57;6.20;;;23.80;82.60;;;;;;5006383;28;20046;-64
2023/08/15 01:03:47;;;;;;;6.07;5.47;;;23.70;82.80;;;;;;5006633;28;20037;-65
2023/08/15 01:06:13;;;;;;;5.47;4.75;;;23.70;82.80;;;;;;5010856;28;20043;-64
2023/08/15 01:08:39;;;;;;;5.82;5.20;;;23.70;83.10;;;;;;5012862;28;20036;-64
2023/08/15 01:11:04;;;;;;;5.68;5.15;;;23.60;83.00;;;;;;5008422;28;20335;-64
2023/08/15 01:14:00;;;;;;;6.35;5.75;;;23.60;83.10;;;;;;5010317;28;20180;-64
2023/08/15 01:16:30;;;;;;;6.55;5.18;;;23.60;84.00;;;;;;5010969;28;20038;-64
2023/08/15 01:19:01;;;;;;;6.00;5.40;;;23.60;83.20;;;;;;5008182;28;20038;-65
2023/08/15 01:21:33;;;;;;;6.38;5.20;;;23.60;83.40;;;;;;5006179;28;20046;-64
2023/08/15 01:23:59;;;;;;;5.97;5.22;;;23.70;83.40;;;;;;5011181;28;20200;-63
2023/08/15 01:26:25;;;;;;;6.65;5.28;;;23.60;83.30;;;;;;5010533;28;20041;-63
2023/08/15 01:28:50;;;;;;;7.07;5.22;;;23.70;83.40;;;;;;5008559;28;20154;-64
2023/08/15 01:31:24;;;;;;;6.03;5.43;;;23.60;84.30;;;;;;5008657;28;20048;-64
2023/08/15 01:34:04;;;;;;;6.80;5.47;;;23.60;84.10;;;;;;5010144;28;20049;-65
2023/08/15 01:36:34;;;;;;;6.68;5.53;;;23.60;83.60;;;;;;4991955;28;20054;-63
2023/08/15 01:39:01;;;;;;;7.57;5.65;;;23.60;83.50;;;;;;5010985;28;20120;-64
2023/08/15 01:41:31;;;;;;;5.85;5.25;;;23.60;83.70;;;;;;5012590;28;20044;-65
2023/08/15 01:43:57;;;;;;;7.45;5.60;;;23.60;84.00;;;;;;5011733;28;20065;-64
2023/08/15 01:46:23;;;;;;;6.05;5.55;;;23.60;83.80;;;;;;5010782;28;20041;-65
2023/08/15 01:48:49;;;;;;;6.70;5.70;;;23.60;83.70;;;;;;5011782;28;20041;-64
2023/08/15 01:51:14;;;;;;;6.28;5.68;;;23.50;83.80;;;;;;5008710;28;20052;-64
2023/08/15 01:53:40;;;;;;;5.60;5.20;;;23.60;84.10;;;;;;5012068;28;20157;-64
2023/08/15 01:56:06;;;;;;;7.25;4.97;;;23.50;83.80;;;;;;5014490;28;20038;-65
2023/08/15 01:58:31;;;;;;;6.65;5.18;;;23.50;83.80;;;;;;5008224;28;20053;-64
2023/08/15 02:00:58;;;;;;;6.07;5.47;;;23.50;83.80;;;;;;5008302;28;20042;-64
2023/08/15 02:03:25;;;;;;;6.60;5.15;;;23.50;83.80;;;;;;5013460;28;20041;-64
2023/08/15 02:05:50;;;;;;;5.57;5.07;;;23.50;83.90;;;;;;5010331;28;20410;-64
2023/08/15 02:08:16;;;;;;;6.50;5.47;;;23.40;83.70;;;;;;5006568;28;20029;-64
2023/08/15 02:10:42;;;;;;;6.90;5.60;;;23.40;84.00;;;;;;5006589;28;20057;-65
2023/08/15 02:13:07;;;;;;;7.50;5.70;;;23.40;84.00;;;;;;5013130;28;20634;-64
2023/08/15 02:15:33;;;;;;;6.70;5.95;;;23.40;84.00;;;;;;5008118;28;20040;-64
2023/08/15 02:17:58;;;;;;;7.05;5.55;;;23.40;84.10;;;;;;5010676;28;20192;-64
2023/08/15 02:20:24;;;;;;;6.43;5.82;;;23.30;84.10;;;;;;5006755;28;20452;-63
2023/08/15 02:22:50;;;;;;;7.40;6.70;;;23.30;84.30;;;;;;5009408;28;20033;-64
2023/08/15 02:25:15;;;;;;;6.95;6.25;;;23.30;84.50;;;;;;5007929;28;20763;-64
2023/08/15 02:27:41;;;;;;;6.72;6.03;;;23.30;84.70;;;;;;5013010;28;20557;-64
2023/08/15 02:30:08;;;;;;;6.13;5.57;;;23.20;84.80;;;;;;5014297;28;20034;-64
2023/08/15 02:32:33;;;;;;;7.40;5.70;;;23.20;84.90;;;;;;5011886;28;20501;-64
2023/08/15 02:34:59;;;;;;;6.65;6.05;;;23.20;85.20;;;;;;5011514;28;20277;-64
2023/08/15 02:37:25;;;;;;;6.97;5.68;;;23.20;85.30;;;;;;5008577;28;20041;-65
2023/08/15 02:39:50;;;;;;;9.13;6.25;;;23.20;85.40;;;;;;5010908;28;20069;-64
2023/08/15 02:42:16;;;;;;;7.10;5.70;;;23.20;85.40;;;;;;5007116;28;20999;-64
2023/08/15 02:44:43;;;;;;;7.07;6.25;;;23.20;85.60;;;;;;5008448;28;20025;-64
2023/08/15 02:47:08;;;;;;;6.72;6.05;;;23.10;85.70;;;;;;5013869;28;20038;-64
2023/08/15 02:49:34;;;;;;;6.22;5.63;;;23.10;85.70;;;;;;5012189;28;20575;-65
2023/08/15 02:51:59;;;;;;;6.43;5.72;;;23.10;85.90;;;;;;5013331;28;20045;-64
2023/08/15 02:54:25;;;;;;;6.55;5.82;;;23.10;86.00;;;;;;5012826;28;20549;-66
2023/08/15 02:56:50;;;;;;;8.70;5.78;;;23.00;86.00;;;;;;5012135;28;20041;-64
2023/08/15 02:59:16;;;;;;;6.43;5.75;;;23.00;86.10;;;;;;5012632;28;20497;-64
2023/08/15 03:01:41;;;;;;;6.10;5.50;;;23.00;86.20;;;;;;5012103;28;20033;-65
2023/08/15 03:04:09;;;;;;;6.30;5.72;;;23.00;86.20;;;;;;5010015;28;20030;-64
2023/08/15 03:06:35;;;;;;;6.10;5.53;;;23.00;86.30;;;;;;5012578;28;20390;-64
2023/08/15 03:09:00;;;;;;;6.10;5.50;;;23.00;86.30;;;;;;5008204;28;20064;-63
2023/08/15 03:11:27;;;;;;;6.25;5.72;;;23.00;86.30;;;;;;5009383;28;20421;-64
2023/08/15 03:13:53;;;;;;;6.40;5.80;;;23.00;86.40;;;;;;5010779;28;20092;-64
2023/08/15 03:16:18;;;;;;;6.20;5.05;;;23.00;86.60;;;;;;5006400;28;20034;-65
2023/08/15 03:18:44;;;;;;;6.25;5.63;;;22.90;86.30;;;;;;5012368;28;20559;-64
2023/08/15 03:21:10;;;;;;;6.15;5.65;;;22.90;86.50;;;;;;5010799;28;20468;-66
2023/08/15 03:23:37;;;;;;;6.60;5.97;;;23.00;86.70;;;;;;5011325;28;20042;-65
2023/08/15 03:26:04;;;;;;;6.65;5.85;;;23.00;86.70;;;;;;5009261;28;20042;-64
2023/08/15 03:28:30;;;;;;;6.32;5.72;;;23.00;86.90;;;;;;5011565;28;20074;-64
2023/08/15 03:30:56;;;;;;;5.97;5.47;;;23.00;86.80;;;;;;5005395;28;20073;-64
2023/08/15 03:33:23;;;;;;;5.97;5.35;;;23.00;86.70;;;;;;5008889;28;20121;-65
2023/08/15 03:35:50;;;;;;;6.60;6.00;;;23.00;86.70;;;;;;5011612;28;20041;-65
2023/08/15 03:38:19;;;;;;;6.88;5.82;;;23.00;86.70;;;;;;5007535;28;20041;-65
2023/08/15 03:40:46;;;;;;;6.38;5.80;;;23.00;86.70;;;;;;5005463;28;20042;-65
2023/08/15 03:43:13;;;;;;;8.07;5.40;;;23.00;86.60;;;;;;5011457;28;20529;-65
2023/08/15 03:45:39;;;;;;;7.35;5.57;;;23.10;86.40;;;;;;5008664;28;20041;-65
2023/08/15 03:48:06;;;;;;;5.60;5.15;;;23.10;86.40;;;;;;5011881;28;20529;-63
2023/08/15 03:50:33;;;;;;;6.40;5.80;;;23.10;86.50;;;;;;5010080;28;20588;-64
2023/08/15 03:52:59;;;;;;;7.20;5.82;;;23.20;86.50;;;;;;5007820;28;20578;-63
2023/08/15 03:55:24;;;;;;;7.38;6.20;;;23.20;86.40;;;;;;5008874;28;20033;-64
2023/08/15 03:57:50;;;;;;;7.13;6.53;;;23.20;86.40;;;;;;5007140;28;20394;-64
2023/08/15 04:00:18;;;;;;;6.85;5.70;;;23.20;86.40;;;;;;5007041;28;20033;-64
2023/08/15 04:02:45;;;;;;;6.88;6.22;;;23.20;86.30;;;;;;5006659;28;20603;-64
2023/08/15 04:05:12;;;;;;;6.45;5.85;;;23.20;86.30;;;;;;5009738;28;20116;-64
2023/08/15 04:07:38;;;;;;;6.57;5.97;;;23.20;86.40;;;;;;5007328;28;20440;-65
2023/08/15 04:10:04;;;;;;;8.38;5.82;;;23.20;86.40;;;;;;5003607;28;20234;-64
2023/08/15 04:12:30;;;;;;;5.93;5.32;;;23.10;86.40;;;;;;5005772;28;20592;-64
2023/08/15 04:14:55;;;;;;;6.63;6.03;;;23.10;86.50;;;;;;5007282;28;20048;-65
2023/08/15 04:17:21;;;;;;;6.53;5.93;;;23.10;86.60;;;;;;5002772;28;20038;-64
2023/08/15 04:19:46;;;;;;;6.53;5.95;;;23.10;86.70;;;;;;5012474;28;20045;-64
2023/08/15 04:22:12;;;;;;;6.85;5.85;;;23.10;86.60;;;;;;5014127;28;20033;-64
2023/08/15 04:24:38;;;;;;;7.10;5.68;;;23.00;86.70;;;;;;5013025;28;20072;-64
2023/08/15 04:27:06;;;;;;;8.52;5.93;;;23.10;86.70;;;;;;5010830;28;20038;-65
2023/08/15 04:29:32;;;;;;;8.60;5.78;;;23.10;87.00;;;;;;5003203;28;21369;-64
2023/08/15 04:31:58;;;;;;;6.78;5.88;;;23.10;86.90;;;;;;5010674;28;20046;-64
2023/08/15 04:34:25;;;;;;;7.60;5.93;;;23.10;86.90;;;;;;5007446;28;20091;-64
2023/08/15 04:36:50;;;;;;;7.72;5.88;;;23.10;87.10;;;;;;5007322;28;20080;-64
2023/08/15 04:39:17;;;;;;;6.75;6.25;;;23.10;87.10;;;;;;5007763;28;20529;-64
2023/08/15 04:41:43;;;;;;;6.22;5.63;;;23.20;87.20;;;;;;5007770;28;20033;-64
2023/08/15 04:44:10;;;;;;;6.72;6.13;;;23.10;87.30;;;;;;5009238;28;20068;-64
2023/08/15 04:46:36;;;;;;;9.35;6.30;;;23.10;87.30;;;;;;5004576;28;20057;-64
2023/08/15 04:49:02;;;;;;;7.25;6.53;;;23.10;87.30;;;;;;5006474;28;20472;-64
2023/08/15 04:51:27;;;;;;;6.88;6.25;;;23.10;87.40;;;;;;5009092;28;20044;-65
2023/08/15 04:53:53;;;;;;;6.90;6.10;;;23.10;87.40;;;;;;5008654;28;20030;-63
2023/08/15 04:56:20;;;;;;;6.72;6.13;;;23.00;87.30;;;;;;5002315;28;20093;-64
2023/08/15 04:58:45;;;;;;;7.00;6.40;;;23.00;87.60;;;;;;5007843;28;20038;-64
2023/08/15 05:01:11;;;;;;;6.57;5.97;;;23.00;87.80;;;;;;4987141;28;20060;-63
2023/08/15 05:03:37;;;;;;;7.05;6.43;;;23.00;87.80;;;;;;5008259;28;20038;-64
2023/08/15 05:06:02;;;;;;;7.30;6.60;;;23.00;87.80;;;;;;5008475;28;20044;-64
2023/08/15 05:08:28;;;;;;;7.35;6.65;;;23.10;88.00;;;;;;5001372;28;20037;-64
2023/08/15 05:10:54;;;;;;;7.18;6.47;;;23.10;88.20;;;;;;4998605;28;20084;-64
2023/08/15 05:13:20;;;;;;;7.00;6.32;;;23.00;88.20;;;;;;5002960;28;20816;-64
2023/08/15 05:15:45;;;;;;;7.95;6.38;;;23.10;88.40;;;;;;5003426;28;20061;-64
2023/08/15 05:18:13;;;;;;;7.57;6.60;;;23.10;88.40;;;;;;5007183;28;20041;-65
2023/08/15 05:20:38;;;;;;;7.50;6.03;;;23.10;88.40;;;;;;5012239;28;20616;-63
2023/08/15 05:23:04;;;;;;;7.30;6.57;;;23.10;89.20;;;;;;5011816;28;20111;-63
2023/08/15 05:25:30;;;;;;;6.78;6.18;;;23.10;88.50;;;;;;5012620;28;20029;-64
2023/08/15 05:27:56;;;;;;;7.53;6.13;;;23.20;88.50;;;;;;5013604;28;20108;-65
2023/08/15 05:30:22;;;;;;;8.60;6.53;;;23.20;88.50;;;;;;5013814;28;20045;-64
2023/08/15 05:32:47;;;;;;;8.13;6.25;;;23.20;88.40;;;;;;5011197;28;20042;-64
2023/08/15 05:35:13;;;;;;;7.38;6.53;;;23.20;88.20;;;;;;5012566;28;20040;-64
2023/08/15 05:37:38;;;;;;;7.80;7.00;;;23.20;88.10;;;;;;5011215;28;20445;-64
2023/08/15 05:40:05;;;;;;;7.32;6.65;;;23.20;88.20;;;;;;5012094;28;20073;-64
2023/08/15 05:42:30;;;;;;;7.10;6.47;;;23.20;88.30;;;;;;5011448;28;20425;-63
2023/08/15 05:44:56;;;;;;;7.43;6.30;;;23.30;88.50;;;;;;5012695;28;20042;-64
2023/08/15 05:47:21;;;;;;;7.22;6.55;;;23.30;88.50;;;;;;5015267;28;20025;-63
2023/08/15 05:49:47;;;;;;;7.60;6.90;;;23.30;88.60;;;;;;5018083;28;20042;-63
2023/08/15 05:52:13;;;;;;;9.43;7.10;;;23.30;88.70;;;;;;5015639;28;20045;-64
2023/08/15 05:54:38;;;;;;;8.52;6.70;;;23.40;88.60;;;;;;5012921;28;20040;-64
2023/08/15 05:57:04;;;;;;;7.85;7.18;;;23.40;88.70;;;;;;5016405;28;20041;-64
2023/08/15 05:59:30;;;;;;;8.57;7.00;;;23.40;88.60;;;;;;4997900;28;20150;-64
2023/08/15 06:01:55;;;;;;;9.50;7.70;;;23.40;88.50;;;;;;5015000;28;20045;-64
2023/08/15 06:04:21;;;;;;;10.45;7.85;;;23.40;88.50;;;;;;5015231;28;20052;-64
2023/08/15 06:06:47;;;;;;;9.70;7.78;;;23.50;88.60;;;;;;5016172;28;20068;-64
2023/08/15 06:09:12;;;;;;;9.40;7.60;;;23.50;88.60;;;;;;5014565;28;20052;-64
2023/08/15 06:11:38;;;;;;;8.95;7.55;;;23.50;89.50;;;;;;5013965;28;20026;-64
2023/08/15 06:14:03;;;;;;;8.35;7.50;;;23.50;88.60;;;;;;5014105;28;20492;-64
2023/08/15 06:16:29;;;;;;;12.85;7.95;;;23.60;88.80;;;;;;5014353;28;20030;-65
2023/08/15 06:18:55;;;;;;;7.90;6.85;;;23.60;88.60;;;;;;5016930;28;20057;-64
2023/08/15 06:21:21;;;;;;;9.05;7.97;;;23.60;88.60;;;;;;5018502;28;20606;-65
2023/08/15 06:23:46;;;;;;;11.25;7.43;;;23.60;88.60;;;;;;5017519;28;20038;-65
2023/08/15 06:26:12;;;;;;;8.20;7.32;;;23.60;88.60;;;;;;5018131;28;20029;-64
2023/08/15 06:28:37;;;;;;;7.85;6.75;;;23.70;89.60;;;;;;5015994;28;20317;-64
2023/08/15 06:31:03;;;;;;;8.77;7.63;;;23.70;88.60;;;;;;5016323;28;20042;-64
2023/08/15 06:33:29;;;;;;;7.90;6.63;;;23.70;88.50;;;;;;5017469;28;20036;-64
2023/08/15 06:35:54;;;;;;;7.72;6.82;;;23.70;88.60;;;;;;5017923;28;20555;-64
2023/08/15 06:38:20;;;;;;;6.78;6.18;;;23.80;88.60;;;;;;5015805;28;20040;-64
2023/08/15 06:40:45;;;;;;;7.70;6.90;;;23.80;88.50;;;;;;5010402;28;20156;-66
2023/08/15 06:43:11;;;;;;;6.75;6.13;;;23.80;88.60;;;;;;5013668;28;20428;-65
2023/08/15 06:45:37;;;;;;;7.03;6.30;;;23.90;88.50;;;;;;5017210;28;20430;-64
2023/08/15 06:48:05;;;;;;;6.65;6.03;;;23.90;88.40;;;;;;5016962;28;20392;-65
2023/08/15 06:50:31;;;;;;;5.72;5.22;;;24.00;88.40;;;;;;5015653;28;20060;-63
2023/08/15 06:52:57;;;;;;;6.43;5.82;;;24.00;88.30;;;;;;5017196;28;20153;-64
2023/08/15 06:55:23;;;;;;;7.15;5.80;;;24.10;88.20;;;;;;5017550;28;20109;-65
2023/08/15 06:57:49;;;;;;;6.70;6.07;;;24.10;88.10;;;;;;5014532;28;20038;-64
2023/08/15 07:00:15;;;;;;;6.13;5.35;;;24.20;88.20;;;;;;5014311;28;20034;-65
2023/08/15 07:02:41;;;;;;;6.72;5.72;;;24.30;88.10;;;;;;5014234;28;20037;-65
2023/08/15 07:05:07;;;;;;;6.00;5.25;;;24.40;88.00;;;;;;5014159;28;20375;-64
2023/08/15 07:07:33;;;;;;;10.00;5.68;;;24.40;87.80;;;;;;5015481;28;20120;-64
2023/08/15 07:09:59;;;;;;;7.30;5.40;;;24.40;87.60;;;;;;5012947;28;20113;-64
2023/08/15 07:12:24;;;;;;;7.20;4.90;;;24.50;87.60;;;;;;5012060;28;20033;-64
2023/08/15 07:14:50;;;;;;;7.85;5.40;;;24.60;87.60;;;;;;5013653;28;20738;-64
2023/08/15 07:17:16;;;;;;;7.95;5.10;;;24.70;87.80;;;;;;5013155;28;20648;-64
2023/08/15 07:19:41;;;;;;;5.50;4.97;;;24.70;87.40;;;;;;5015250;28;20069;-64
2023/08/15 07:22:07;;;;;;;6.60;5.13;;;24.70;87.30;;;;;;5014525;28;20090;-64
2023/08/15 07:24:33;;;;;;;13.20;5.10;;;24.80;86.80;;;;;;5013513;28;20033;-64
2023/08/15 07:26:58;;;;;;;9.02;4.57;;;24.90;86.50;;;;;;5013312;28;20037;-64
2023/08/15 07:29:24;;;;;;;5.32;4.82;;;25.00;86.40;;;;;;5014415;28;20034;-64
2023/08/15 07:31:50;;;;;;;6.55;4.78;;;25.00;86.20;;;;;;5014906;28;20026;-65
2023/08/15 07:34:15;;;;;;;9.95;5.47;;;25.10;85.90;;;;;;5013408;28;20034;-65
2023/08/15 07:36:41;;;;;;;6.00;5.45;;;25.20;85.90;;;;;;5013166;28;20113;-65
2023/08/15 07:39:06;;;;;;;8.65;5.20;;;25.20;85.20;;;;;;5014958;28;20029;-65
2023/08/15 07:41:32;;;;;;;6.03;5.00;;;25.30;84.90;;;;;;5015182;28;20124;-64
2023/08/15 07:43:57;;;;;;;5.50;5.00;;;25.40;84.80;;;;;;5010317;28;20042;-64
2023/08/15 07:46:23;;;;;;;6.07;4.90;;;25.50;84.40;;;;;;5014617;28;20042;-64
2023/08/15 07:48:50;;;;;;;7.40;4.80;;;25.60;84.40;;;;;;5013694;28;20030;-66
2023/08/15 07:51:16;;;;;;;9.98;4.28;;;25.70;84.30;;;;;;5012371;28;20128;-64
2023/08/15 07:53:41;;;;;;;7.90;4.40;;;25.80;83.70;;;;;;5012821;28;20124;-64
2023/08/15 07:56:07;;;;;;;7.78;4.95;;;25.90;83.50;;;;;;5013091;28;20049;-64
2023/08/15 07:58:33;;;;;;;6.00;4.45;;;26.00;83.50;;;;;;5013136;28;20095;-65
2023/08/15 08:00:59;;;;;;;8.57;5.07;;;26.10;83.60;;;;;;5013600;28;20672;-65
2023/08/15 08:03:24;;;;;;;5.45;4.43;;;26.10;83.00;;;;;;5010046;28;20034;-64
2023/08/15 08:05:50;;;;;;;4.47;4.13;;;26.20;82.50;;;;;;5015426;28;20124;-64
2023/08/15 08:08:16;;;;;;;4.88;4.30;;;26.30;81.80;;;;;;5013399;28;20037;-64
2023/08/15 08:10:41;;;;;;;4.38;3.97;;;26.40;81.00;;;;;;5009868;28;20068;-65
2023/08/15 08:13:10;;;;;;;4.40;3.63;;;26.60;80.40;;;;;;5014185;28;20040;-64
2023/08/15 08:15:35;;;;;;;6.80;4.10;;;26.60;79.90;;;;;;5013898;28;20061;-65
2023/08/15 08:18:01;;;;;;;5.63;4.00;;;26.70;79.40;;;;;;5012024;28;20022;-65
2023/08/15 08:20:26;;;;;;;4.78;3.80;;;26.80;78.40;;;;;;5012227;28;20069;-65
2023/08/15 08:22:52;;;;;;;5.88;4.13;;;26.90;78.50;;;;;;5014612;28;20045;-63
2023/08/15 08:25:21;;;;;;;4.65;4.25;;;27.00;78.00;;;;;;5014894;28;20386;-64
2023/08/15 08:27:47;;;;;;;7.65;4.20;;;27.00;78.00;;;;;;5014845;28;20046;-64
2023/08/15 08:30:18;;;;;;;5.72;3.88;;;27.10;77.90;;;;;;5014415;28;20045;-64
2023/08/15 08:32:44;;;;;;;5.90;4.10;;;27.20;78.70;;;;;;5014148;28;20053;-65
2023/08/15 08:35:10;;;;;;;9.35;4.25;;;27.30;78.40;;;;;;5012742;28;20412;-65
2023/08/15 08:37:37;;;;;;;8.25;3.80;;;27.40;77.10;;;;;;5014325;28;20135;-65
2023/08/15 08:40:05;;;;;;;7.72;4.07;;;27.50;77.00;;;;;;5014349;28;20794;-63
2023/08/15 08:42:31;;;;;;;12.05;4.18;;;27.60;76.90;;;;;;5014707;28;20457;-65
2023/08/15 08:44:58;;;;;;;7.47;3.80;;;27.60;75.70;;;;;;5013749;28;20030;-64
2023/08/15 08:47:28;;;;;;;8.43;3.95;;;27.70;75.40;;;;;;5013984;28;20051;-65
2023/08/15 08:49:57;;;;;;;7.82;4.25;;;27.70;74.90;;;;;;5015335;28;20057;-64
2023/08/15 08:52:23;;;;;;;6.38;3.67;;;27.80;74.40;;;;;;5014408;28;20405;-64
2023/08/15 08:54:50;;;;;;;4.35;3.72;;;27.80;74.30;;;;;;5013519;28;20451;-64
2023/08/15 08:57:18;;;;;;;7.15;3.92;;;27.90;74.30;;;;;;5012057;28;20109;-65
2023/08/15 08:59:45;;;;;;;6.90;3.88;;;27.90;74.10;;;;;;5014826;28;20072;-64
2023/08/15 09:02:14;;;;;;;4.32;3.85;;;28.00;74.30;;;;;;5014315;28;20481;-65
2023/08/15 09:04:41;;;;;;;5.05;4.32;;;28.00;75.20;;;;;;5013705;28;20517;-65
2023/08/15 09:07:06;;;;;;;4.90;4.20;;;28.00;75.20;;;;;;5012370;28;20061;-65
2023/08/15 09:09:32;;;;;;;8.48;3.75;;;28.10;76.10;;;;;;5015295;28;20030;-64
2023/08/15 09:11:58;;;;;;;6.93;4.10;;;28.10;74.70;;;;;;5010101;28;20452;-65
2023/08/15 09:14:23;;;;;;;11.05;4.10;;;28.20;74.80;;;;;;5011566;28;20037;-64
2023/08/15 09:16:49;;;;;;;6.10;3.50;;;28.20;73.10;;;;;;5009290;28;20080;-65
2023/08/15 09:19:15;;;;;;;8.70;3.58;;;28.30;73.30;;;;;;5014581;28;20044;-65
2023/08/15 09:21:42;;;;;;;4.53;3.60;;;28.30;71.70;;;;;;5016028;28;20041;-64
2023/08/15 09:24:08;;;;;;;7.47;3.30;;;28.30;70.70;;;;;;5017491;28;20038;-64
2023/08/15 09:26:35;;;;;;;6.70;3.55;;;28.30;70.00;;;;;;5017876;28;20049;-64
2023/08/15 09:29:02;;;;;;;5.25;3.08;;;28.30;69.20;;;;;;5017207;28;20030;-64
2023/08/15 09:31:28;;;;;;;9.77;3.10;;;28.30;68.50;;;;;;5018507;28;20034;-65
2023/08/15 09:33:54;;;;;;;6.25;2.67;;;28.30;69.10;;;;;;5017589;28;20048;-64
2023/08/15 09:36:19;;;;;;;5.70;2.65;;;28.20;67.70;;;;;;4999611;28;20057;-64
2023/08/15 09:38:45;;;;;;;4.55;2.63;;;28.20;66.40;;;;;;5014248;28;20094;-64
2023/08/15 09:41:12;;;;;;;5.95;2.65;;;28.20;66.50;;;;;;5015465;28;20409;-65
2023/08/15 09:43:51;;;;;;;3.72;2.60;;;28.30;66.50;;;;;;5017244;28;20492;-64
2023/08/15 09:46:21;;;;;;;7.43;2.75;;;28.30;62.80;;;;;;5017524;28;20041;-65
2023/08/15 09:48:48;;;;;;;4.00;2.78;;;28.30;64.90;;;;;;5015630;28;20042;-64
2023/08/15 09:51:17;;;;;;;5.90;3.40;;;28.40;65.30;;;;;;5017583;28;20387;-64
2023/08/15 09:53:45;;;;;;;4.43;3.10;;;28.40;65.60;;;;;;5018250;28;20034;-64
2023/08/15 09:56:11;;;;;;;5.35;2.70;;;28.50;65.20;;;;;;5015887;28;20041;-64
2023/08/15 09:58:38;;;;;;;4.38;3.28;;;28.60;65.10;;;;;;5015477;28;20041;-65
2023/08/15 10:01:06;;;;;;;4.00;3.05;;;28.60;65.40;;;;;;5016205;28;20579;-64
2023/08/15 10:03:34;;;;;;;4.55;3.20;;;28.70;65.40;;;;;;5016339;28;20120;-65
2023/08/15 10:06:02;;;;;;;4.30;2.55;;;28.80;65.60;;;;;;5016327;28;20084;-65
2023/08/15 10:08:29;;;;;;;6.75;3.10;;;28.80;64.60;;;;;;5014447;28;20088;-65
2023/08/15 10:10:58;;;;;;;10.23;3.10;;;28.90;64.80;;;;;;5015832;28;20037;-66
2023/08/15 10:13:38;;;;;;;9.65;2.85;;;28.90;64.70;;;;;;5015492;28;20124;-65
2023/08/15 10:16:06;;;;;;;4.05;2.75;;;29.00;62.60;;;;;;5014378;28;20072;-66
2023/08/15 10:18:32;;;;;;;3.42;2.55;;;29.00;62.90;;;;;;5012947;28;20083;-66
2023/08/15 10:20:58;;;;;;;4.32;2.70;;;29.00;61.60;;;;;;5017037;28;20045;-65
2023/08/15 10:23:34;;;;;;;6.55;2.90;;;28.90;61.10;;;;;;5016467;28;20121;-65
2023/08/15 10:26:01;;;;;;;4.93;2.75;;;28.90;60.90;;;;;;5013693;28;20121;-65
2023/08/15 10:28:29;;;;;;;3.17;2.40;;;28.80;61.90;;;;;;5014879;28;20080;-64
2023/08/15 10:30:55;;;;;;;5.00;2.60;;;28.90;62.50;;;;;;5015538;28;20042;-65
2023/08/15 10:33:23;;;;;;;4.53;2.80;;;28.80;63.30;;;;;;5012013;28;20037;-65
2023/08/15 10:35:54;;;;;;;2.95;2.58;;;28.80;62.30;;;;;;5016258;28;20060;-64
2023/08/15 10:38:20;;;;;;;3.20;2.58;;;28.80;62.20;;;;;;5012921;28;20489;-65
2023/08/15 10:40:46;;;;;;;5.38;3.03;;;28.90;62.80;;;;;;5016201;28;20087;-66
2023/08/15 10:43:15;;;;;;;4.22;2.58;;;28.90;62.10;;;;;;5016686;28;20045;-65
2023/08/15 10:45:45;;;;;;;8.10;2.65;;;28.90;63.00;;;;;;5017146;28;20037;-65
2023/08/15 10:48:12;;;;;;;9.00;3.13;;;28.90;62.30;;;;;;5016315;28;20080;-65
2023/08/15 10:50:46;;;;;;;5.63;2.60;;;29.00;61.90;;;;;;5015268;28;20034;-65
2023/08/15 10:53:12;;;;;;;3.35;2.60;;;29.00;61.30;;;;;;5016268;28;21284;-64
2023/08/15 10:55:39;;;;;;;4.45;2.55;;;29.00;60.90;;;;;;5013800;28;20029;-65
2023/08/15 10:58:10;;;;;;;4.78;2.50;;;29.00;60.90;;;;;;5013417;28;20121;-65
2023/08/15 11:00:36;;;;;;;4.40;2.40;;;29.00;59.50;;;;;;5010630;28;20049;-65
2023/08/15 11:03:03;;;;;;;5.60;2.53;;;29.00;59.50;;;;;;5014412;28;20030;-64
2023/08/15 11:05:29;;;;;;;4.32;2.53;;;29.10;59.70;;;;;;5016014;28;20094;-64
2023/08/15 11:08:11;;;;;;;6.47;3.00;;;29.10;60.30;;;;;;5014448;28;20034;-65
2023/08/15 11:10:42;;;;;;;4.47;2.72;;;29.20;59.20;;;;;;5012439;28;20045;-64
2023/08/15 11:13:08;;;;;;;3.88;2.60;;;29.20;60.30;;;;;;5016336;28;20040;-66
2023/08/15 11:15:34;;;;;;;4.35;2.85;;;29.30;61.20;;;;;;5015086;28;20030;-65
2023/08/15 11:17:59;;;;;;;4.85;3.17;;;29.30;60.70;;;;;;5012578;28;20065;-65
2023/08/15 11:20:29;;;;;;;3.72;2.70;;;29.40;60.60;;;;;;5014309;28;20053;-65
2023/08/15 11:22:56;;;;;;;3.38;2.78;;;29.50;60.20;;;;;;5016437;28;20087;-65
2023/08/15 11:25:22;;;;;;;6.72;2.85;;;29.50;60.80;;;;;;5013938;28;20036;-65
2023/08/15 11:27:50;;;;;;;9.50;3.40;;;29.50;60.90;;;;;;5014597;28;20041;-66
2023/08/15 11:30:19;;;;;;;3.58;3.08;;;29.50;60.90;;;;;;5012743;28;20034;-66
2023/08/15 11:32:45;;;;;;;5.00;2.90;;;29.50;61.30;;;;;;5014786;28;20422;-65
2023/08/15 11:35:11;;;;;;;7.00;2.92;;;29.60;61.60;;;;;;5016287;28;20406;-65
2023/08/15 11:37:37;;;;;;;3.60;3.00;;;29.60;61.80;;;;;;5015539;28;20132;-65
2023/08/15 11:40:04;;;;;;;4.97;3.25;;;29.60;61.80;;;;;;5014364;28;20041;-65
2023/08/15 11:42:32;;;;;;;6.63;3.50;;;29.60;61.40;;;;;;5013470;28;20038;-64
2023/08/15 11:45:11;;;;;;;12.15;3.33;;;29.60;61.70;;;;;;5016259;28;20121;-65
2023/08/15 11:47:52;;;;;;;13.57;3.22;;;29.70;61.20;;;;;;5015556;28;20042;-65
2023/08/15 11:50:18;;;;;;;18.45;3.60;;;29.60;61.60;;;;;;5015161;28;20107;-65
2023/08/15 11:52:45;;;;;;;6.72;3.30;;;29.60;62.30;;;;;;5013975;28;20124;-65
2023/08/15 11:55:11;;;;;;;6.78;3.08;;;29.60;61.90;;;;;;5013396;28;20180;-65
2023/08/15 11:57:37;;;;;;;5.20;3.30;;;29.60;62.00;;;;;;5013971;28;20168;-65
2023/08/15 12:00:03;;;;;;;5.22;3.30;;;29.60;62.40;;;;;;5015477;28;20107;-65
2023/08/15 12:02:29;;;;;;;4.93;3.20;;;29.60;63.00;;;;;;5012749;28;20045;-64
2023/08/15 12:04:55;;;;;;;4.90;3.50;;;29.60;63.30;;;;;;5014266;28;20319;-65
2023/08/15 12:07:21;;;;;;;4.05;3.17;;;29.50;62.80;;;;;;5014750;28;20049;-65
2023/08/15 12:09:47;;;;;;;5.68;3.10;;;29.50;62.60;;;;;;5012017;28;20083;-65
2023/08/15 12:12:19;;;;;;;5.05;3.35;;;29.40;63.10;;;;;;5012831;28;20425;-65
2023/08/15 12:14:45;;;;;;;4.20;3.03;;;29.40;62.50;;;;;;5013914;28;20406;-64
2023/08/15 12:17:10;;;;;;;7.00;3.50;;;29.30;63.60;;;;;;5014476;28;20030;-65
2023/08/15 12:19:36;;;;;;;5.40;3.30;;;29.30;62.90;;;;;;5011640;28;20041;-65
2023/08/15 12:22:03;;;;;;;4.95;3.42;;;29.30;63.30;;;;;;5015684;28;20026;-65
2023/08/15 12:24:28;;;;;;;3.67;3.05;;;29.30;63.20;;;;;;5013688;28;20430;-64
2023/08/15 12:26:54;;;;;;;4.45;3.15;;;29.30;63.20;;;;;;5015025;28;20036;-64
2023/08/15 12:29:19;;;;;;;5.45;3.35;;;29.30;63.30;;;;;;5012889;28;20476;-64
2023/08/15 12:31:45;;;;;;;7.00;3.10;;;29.30;63.30;;;;;;5013006;28;20113;-65
2023/08/15 12:34:11;;;;;;;9.35;3.50;;;29.30;63.30;;;;;;5013419;28;20517;-65
2023/08/15 12:36:36;;;;;;;5.85;3.47;;;29.30;63.00;;;;;;5013051;28;20043;-65
2023/08/15 12:39:03;;;;;;;6.10;3.53;;;29.40;63.20;;;;;;5014397;28;20042;-64
2023/08/15 12:41:28;;;;;;;5.05;3.17;;;29.30;62.80;;;;;;5011373;28;20457;-65